sensor_id;sensor_type;location;lat;lon;timestamp;P1;durP1;ratioP1;P2;durP2;ratioP2
59907;SDS011;61804;54.926;73.496;2022-09-12T00:01:27;8.98;;;2.67;;
59907;SDS011;61804;54.926;73.496;2022-09-12T00:03:56;4.30;;;2.72;;
59907;SDS011;61804;54.926;73.496;2022-09-12T00:06:25;5.07;;;2.47;;
59907;SDS011;61804;54.926;73.496;2022-09-12T00:08:57;8.10;;;2.75;;
59907;SDS011;61804;54.926;73.496;2022-09-12T00:11:25;6.93;;;2.72;;
59907;SDS011;61804;54.926;73.496;2022-09-12T00:13:56;16.85;;;2.97;;
59907;SDS011;61804;54.926;73.496;2022-09-12T00:16:36;13.43;;;3.10;;
59907;SDS011;61804;54.926;73.496;2022-09-12T00:19:06;3.75;;;2.55;;
59907;SDS011;61804;54.926;73.496;2022-09-12T00:21:35;7.63;;;2.33;;
59907;SDS011;61804;54.926;73.496;2022-09-12T00:24:03;3.60;;;1.73;;
59907;SDS011;61804;54.926;73.496;2022-09-12T00:26:31;12.77;;;2.28;;
59907;SDS011;61804;54.926;73.496;2022-09-12T00:29:03;16.27;;;5.93;;
59907;SDS011;61804;54.926;73.496;2022-09-12T00:31:31;16.92;;;2.90;;
59907;SDS011;61804;54.926;73.496;2022-09-12T00:34:04;8.55;;;2.67;;
59907;SDS011;61804;54.926;73.496;2022-09-12T00:36:31;17.73;;;4.32;;
59907;SDS011;61804;54.926;73.496;2022-09-12T00:38:59;6.85;;;2.60;;
59907;SDS011;61804;54.926;73.496;2022-09-12T00:41:28;8.35;;;2.97;;
59907;SDS011;61804;54.926;73.496;2022-09-12T00:44:00;22.13;;;4.70;;
59907;SDS011;61804;54.926;73.496;2022-09-12T00:46:48;9.80;;;3.10;;
59907;SDS011;61804;54.926;73.496;2022-09-12T00:49:23;9.88;;;1.98;;
59907;SDS011;61804;54.926;73.496;2022-09-12T00:54:25;4.05;;;2.30;;
59907;SDS011;61804;54.926;73.496;2022-09-12T00:56:54;3.70;;;1.90;;
59907;SDS011;61804;54.926;73.496;2022-09-12T00:59:25;9.45;;;3.97;;
59907;SDS011;61804;54.926;73.496;2022-09-12T01:01:54;10.90;;;3.97;;
59907;SDS011;61804;54.926;73.496;2022-09-12T01:04:33;15.60;;;4.18;;
59907;SDS011;61804;54.926;73.496;2022-09-12T01:07:01;40.53;;;8.85;;
59907;SDS011;61804;54.926;73.496;2022-09-12T01:09:43;8.88;;;3.72;;
59907;SDS011;61804;54.926;73.496;2022-09-12T01:12:12;15.65;;;4.80;;
59907;SDS011;61804;54.926;73.496;2022-09-12T01:14:41;7.85;;;4.03;;
59907;SDS011;61804;54.926;73.496;2022-09-12T01:17:13;10.15;;;4.13;;
59907;SDS011;61804;54.926;73.496;2022-09-12T01:35:18;37.65;;;16.13;;
59907;SDS011;61804;54.926;73.496;2022-09-12T01:37:53;56.40;;;20.08;;
59907;SDS011;61804;54.926;73.496;2022-09-12T01:45:45;38.92;;;17.38;;
59907;SDS011;61804;54.926;73.496;2022-09-12T01:48:34;28.88;;;13.63;;
59907;SDS011;61804;54.926;73.496;2022-09-12T01:51:06;27.23;;;14.18;;
59907;SDS011;61804;54.926;73.496;2022-09-12T01:53:37;28.85;;;12.15;;
59907;SDS011;61804;54.926;73.496;2022-09-12T01:56:26;23.05;;;11.20;;
59907;SDS011;61804;54.926;73.496;2022-09-12T01:58:58;26.77;;;7.60;;
59907;SDS011;61804;54.926;73.496;2022-09-12T02:01:29;15.50;;;6.43;;
59907;SDS011;61804;54.926;73.496;2022-09-12T02:04:11;34.65;;;11.85;;
59907;SDS011;61804;54.926;73.496;2022-09-12T02:06:45;32.10;;;9.25;;
59907;SDS011;61804;54.926;73.496;2022-09-12T02:09:19;23.53;;;6.27;;
59907;SDS011;61804;54.926;73.496;2022-09-12T02:11:49;19.70;;;6.72;;
59907;SDS011;61804;54.926;73.496;2022-09-12T02:14:24;20.63;;;7.22;;
59907;SDS011;61804;54.926;73.496;2022-09-12T02:16:55;27.50;;;6.50;;
59907;SDS011;61804;54.926;73.496;2022-09-12T02:19:27;12.25;;;5.82;;
59907;SDS011;61804;54.926;73.496;2022-09-12T02:21:58;17.85;;;5.47;;
59907;SDS011;61804;54.926;73.496;2022-09-12T02:24:28;7.28;;;3.60;;
59907;SDS011;61804;54.926;73.496;2022-09-12T02:27:04;30.48;;;11.35;;
59907;SDS011;61804;54.926;73.496;2022-09-12T02:29:33;22.55;;;6.32;;
59907;SDS011;61804;54.926;73.496;2022-09-12T02:32:06;8.63;;;3.80;;
59907;SDS011;61804;54.926;73.496;2022-09-12T02:39:33;37.95;;;9.95;;
59907;SDS011;61804;54.926;73.496;2022-09-12T02:42:07;33.35;;;7.75;;
59907;SDS011;61804;54.926;73.496;2022-09-12T02:44:35;25.73;;;6.47;;
59907;SDS011;61804;54.926;73.496;2022-09-12T02:47:08;23.98;;;6.75;;
59907;SDS011;61804;54.926;73.496;2022-09-12T02:49:38;11.52;;;3.90;;
59907;SDS011;61804;54.926;73.496;2022-09-12T02:52:07;18.55;;;5.15;;
59907;SDS011;61804;54.926;73.496;2022-09-12T02:54:45;33.05;;;6.35;;
59907;SDS011;61804;54.926;73.496;2022-09-12T02:57:14;24.48;;;5.90;;
59907;SDS011;61804;54.926;73.496;2022-09-12T02:59:42;28.13;;;6.72;;
59907;SDS011;61804;54.926;73.496;2022-09-12T03:13:17;28.13;;;8.15;;
59907;SDS011;61804;54.926;73.496;2022-09-12T03:20:48;26.05;;;7.28;;
59907;SDS011;61804;54.926;73.496;2022-09-12T03:23:23;24.55;;;10.75;;
59907;SDS011;61804;54.926;73.496;2022-09-12T03:25:53;25.90;;;7.80;;
59907;SDS011;61804;54.926;73.496;2022-09-12T03:28:24;36.85;;;10.00;;
59907;SDS011;61804;54.926;73.496;2022-09-12T03:30:51;39.03;;;8.02;;
59907;SDS011;61804;54.926;73.496;2022-09-12T03:33:22;42.83;;;8.93;;
59907;SDS011;61804;54.926;73.496;2022-09-12T03:35:49;19.95;;;5.32;;
59907;SDS011;61804;54.926;73.496;2022-09-12T03:38:17;12.40;;;3.72;;
59907;SDS011;61804;54.926;73.496;2022-09-12T03:40:45;36.13;;;6.32;;
59907;SDS011;61804;54.926;73.496;2022-09-12T03:43:12;19.45;;;6.97;;
59907;SDS011;61804;54.926;73.496;2022-09-12T03:45:50;19.80;;;6.90;;
59907;SDS011;61804;54.926;73.496;2022-09-12T03:48:20;12.35;;;1.98;;
59907;SDS011;61804;54.926;73.496;2022-09-12T03:50:47;2.05;;;1.15;;
59907;SDS011;61804;54.926;73.496;2022-09-12T03:53:16;4.53;;;2.50;;
59907;SDS011;61804;54.926;73.496;2022-09-12T03:55:44;20.15;;;5.43;;
59907;SDS011;61804;54.926;73.496;2022-09-12T03:58:11;11.52;;;3.30;;
59907;SDS011;61804;54.926;73.496;2022-09-12T04:00:39;21.20;;;5.05;;
59907;SDS011;61804;54.926;73.496;2022-09-12T04:03:08;45.58;;;12.60;;
59907;SDS011;61804;54.926;73.496;2022-09-12T04:05:36;20.67;;;6.07;;
59907;SDS011;61804;54.926;73.496;2022-09-12T04:08:04;28.25;;;8.15;;
59907;SDS011;61804;54.926;73.496;2022-09-12T04:10:32;21.00;;;10.57;;
59907;SDS011;61804;54.926;73.496;2022-09-12T04:12:59;11.05;;;5.18;;
59907;SDS011;61804;54.926;73.496;2022-09-12T04:15:27;15.18;;;5.38;;
59907;SDS011;61804;54.926;73.496;2022-09-12T04:17:55;43.17;;;5.63;;
59907;SDS011;61804;54.926;73.496;2022-09-12T04:20:22;38.15;;;5.60;;
59907;SDS011;61804;54.926;73.496;2022-09-12T04:22:50;52.42;;;8.02;;
59907;SDS011;61804;54.926;73.496;2022-09-12T04:25:19;31.85;;;6.72;;
59907;SDS011;61804;54.926;73.496;2022-09-12T04:27:46;66.32;;;7.72;;
59907;SDS011;61804;54.926;73.496;2022-09-12T04:30:13;21.55;;;6.53;;
59907;SDS011;61804;54.926;73.496;2022-09-12T04:32:42;11.02;;;4.18;;
59907;SDS011;61804;54.926;73.496;2022-09-12T04:35:10;14.48;;;2.90;;
59907;SDS011;61804;54.926;73.496;2022-09-12T04:37:38;16.48;;;3.85;;
59907;SDS011;61804;54.926;73.496;2022-09-12T04:40:05;12.43;;;2.58;;
59907;SDS011;61804;54.926;73.496;2022-09-12T04:42:38;28.83;;;6.88;;
59907;SDS011;61804;54.926;73.496;2022-09-12T04:45:06;38.83;;;8.38;;
59907;SDS011;61804;54.926;73.496;2022-09-12T04:47:33;47.92;;;8.27;;
59907;SDS011;61804;54.926;73.496;2022-09-12T04:50:01;27.17;;;5.07;;
59907;SDS011;61804;54.926;73.496;2022-09-12T04:52:28;24.05;;;4.35;;
59907;SDS011;61804;54.926;73.496;2022-09-12T04:54:56;21.30;;;4.43;;
59907;SDS011;61804;54.926;73.496;2022-09-12T04:57:35;35.22;;;7.32;;
59907;SDS011;61804;54.926;73.496;2022-09-12T05:00:03;5.65;;;2.35;;
59907;SDS011;61804;54.926;73.496;2022-09-12T05:02:32;35.40;;;6.88;;
59907;SDS011;61804;54.926;73.496;2022-09-12T05:05:00;26.58;;;6.15;;
59907;SDS011;61804;54.926;73.496;2022-09-12T05:07:28;37.80;;;10.32;;
59907;SDS011;61804;54.926;73.496;2022-09-12T05:09:56;23.08;;;5.72;;
59907;SDS011;61804;54.926;73.496;2022-09-12T05:12:33;62.22;;;13.10;;
59907;SDS011;61804;54.926;73.496;2022-09-12T05:15:11;15.32;;;4.40;;
59907;SDS011;61804;54.926;73.496;2022-09-12T05:17:39;18.73;;;6.03;;
59907;SDS011;61804;54.926;73.496;2022-09-12T05:20:21;30.10;;;8.40;;
59907;SDS011;61804;54.926;73.496;2022-09-12T05:22:54;6.90;;;2.28;;
59907;SDS011;61804;54.926;73.496;2022-09-12T05:25:28;15.43;;;3.63;;
59907;SDS011;61804;54.926;73.496;2022-09-12T05:27:55;18.67;;;5.50;;
59907;SDS011;61804;54.926;73.496;2022-09-12T05:30:30;33.17;;;9.53;;
59907;SDS011;61804;54.926;73.496;2022-09-12T05:32:57;22.02;;;5.65;;
59907;SDS011;61804;54.926;73.496;2022-09-12T05:35:25;13.82;;;6.45;;
59907;SDS011;61804;54.926;73.496;2022-09-12T05:38:03;18.48;;;6.63;;
59907;SDS011;61804;54.926;73.496;2022-09-12T05:40:32;34.55;;;8.02;;
59907;SDS011;61804;54.926;73.496;2022-09-12T05:43:02;19.60;;;3.83;;
59907;SDS011;61804;54.926;73.496;2022-09-12T05:45:35;8.15;;;2.63;;
59907;SDS011;61804;54.926;73.496;2022-09-12T05:48:03;10.15;;;2.10;;
59907;SDS011;61804;54.926;73.496;2022-09-12T05:50:31;12.32;;;3.35;;
59907;SDS011;61804;54.926;73.496;2022-09-12T05:53:03;11.00;;;3.47;;
59907;SDS011;61804;54.926;73.496;2022-09-12T05:55:30;4.32;;;1.48;;
59907;SDS011;61804;54.926;73.496;2022-09-12T05:57:58;19.00;;;5.32;;
59907;SDS011;61804;54.926;73.496;2022-09-12T06:00:26;2.83;;;1.20;;
59907;SDS011;61804;54.926;73.496;2022-09-12T06:03:07;4.47;;;1.63;;
59907;SDS011;61804;54.926;73.496;2022-09-12T06:05:36;47.58;;;7.57;;
59907;SDS011;61804;54.926;73.496;2022-09-12T06:08:08;10.50;;;4.03;;
59907;SDS011;61804;54.926;73.496;2022-09-12T06:10:36;18.00;;;4.78;;
59907;SDS011;61804;54.926;73.496;2022-09-12T06:13:04;16.30;;;2.47;;
59907;SDS011;61804;54.926;73.496;2022-09-12T06:15:37;11.82;;;3.47;;
59907;SDS011;61804;54.926;73.496;2022-09-12T06:18:09;8.00;;;2.97;;
59907;SDS011;61804;54.926;73.496;2022-09-12T06:20:43;12.15;;;2.85;;
59907;SDS011;61804;54.926;73.496;2022-09-12T06:23:10;16.05;;;4.88;;
59907;SDS011;61804;54.926;73.496;2022-09-12T06:25:44;13.15;;;2.60;;
59907;SDS011;61804;54.926;73.496;2022-09-12T06:28:17;6.82;;;2.35;;
59907;SDS011;61804;54.926;73.496;2022-09-12T06:30:45;8.50;;;3.13;;
59907;SDS011;61804;54.926;73.496;2022-09-12T06:33:14;16.20;;;5.55;;
59907;SDS011;61804;54.926;73.496;2022-09-12T06:35:41;10.77;;;3.03;;
59907;SDS011;61804;54.926;73.496;2022-09-12T06:38:11;12.10;;;5.70;;
59907;SDS011;61804;54.926;73.496;2022-09-12T06:40:40;17.35;;;5.22;;
59907;SDS011;61804;54.926;73.496;2022-09-12T06:43:15;43.38;;;14.15;;
59907;SDS011;61804;54.926;73.496;2022-09-12T06:45:47;22.98;;;4.78;;
59907;SDS011;61804;54.926;73.496;2022-09-12T06:48:15;67.07;;;30.77;;
59907;SDS011;61804;54.926;73.496;2022-09-12T06:50:42;27.10;;;7.22;;
59907;SDS011;61804;54.926;73.496;2022-09-12T06:53:20;15.55;;;5.20;;
59907;SDS011;61804;54.926;73.496;2022-09-12T06:55:53;18.13;;;6.25;;
59907;SDS011;61804;54.926;73.496;2022-09-12T06:58:26;18.88;;;3.97;;
59907;SDS011;61804;54.926;73.496;2022-09-12T07:03:30;17.42;;;6.45;;
59907;SDS011;61804;54.926;73.496;2022-09-12T07:06:03;65.72;;;13.63;;
59907;SDS011;61804;54.926;73.496;2022-09-12T07:08:42;12.45;;;3.83;;
59907;SDS011;61804;54.926;73.496;2022-09-12T07:13:44;12.90;;;4.07;;
59907;SDS011;61804;54.926;73.496;2022-09-12T07:16:11;16.02;;;4.72;;
59907;SDS011;61804;54.926;73.496;2022-09-12T07:18:39;13.00;;;4.68;;
59907;SDS011;61804;54.926;73.496;2022-09-12T07:21:08;33.50;;;7.53;;
59907;SDS011;61804;54.926;73.496;2022-09-12T07:23:46;17.33;;;4.55;;
59907;SDS011;61804;54.926;73.496;2022-09-12T07:26:14;18.38;;;3.60;;
59907;SDS011;61804;54.926;73.496;2022-09-12T07:28:49;51.92;;;13.02;;
59907;SDS011;61804;54.926;73.496;2022-09-12T07:31:17;45.17;;;7.90;;
59907;SDS011;61804;54.926;73.496;2022-09-12T07:33:46;21.98;;;5.60;;
59907;SDS011;61804;54.926;73.496;2022-09-12T07:36:13;15.15;;;5.03;;
59907;SDS011;61804;54.926;73.496;2022-09-12T07:38:42;16.25;;;5.10;;
59907;SDS011;61804;54.926;73.496;2022-09-12T07:41:19;16.17;;;5.53;;
59907;SDS011;61804;54.926;73.496;2022-09-12T07:43:47;23.80;;;8.30;;
59907;SDS011;61804;54.926;73.496;2022-09-12T07:46:19;33.15;;;7.50;;
59907;SDS011;61804;54.926;73.496;2022-09-12T07:48:48;19.20;;;5.60;;
59907;SDS011;61804;54.926;73.496;2022-09-12T07:51:16;22.98;;;5.82;;
59907;SDS011;61804;54.926;73.496;2022-09-12T07:53:46;32.92;;;10.90;;
59907;SDS011;61804;54.926;73.496;2022-09-12T07:56:15;9.27;;;3.63;;
59907;SDS011;61804;54.926;73.496;2022-09-12T07:58:43;7.10;;;2.80;;
59907;SDS011;61804;54.926;73.496;2022-09-12T08:03:39;19.63;;;7.57;;
59907;SDS011;61804;54.926;73.496;2022-09-12T08:08:35;19.92;;;10.68;;
59907;SDS011;61804;54.926;73.496;2022-09-12T08:11:04;22.05;;;10.93;;
59907;SDS011;61804;54.926;73.496;2022-09-12T08:13:32;7.63;;;3.97;;
59907;SDS011;61804;54.926;73.496;2022-09-12T08:16:15;70.18;;;9.23;;
59907;SDS011;61804;54.926;73.496;2022-09-12T08:18:53;6.03;;;2.05;;
59907;SDS011;61804;54.926;73.496;2022-09-12T08:21:25;19.52;;;3.97;;
59907;SDS011;61804;54.926;73.496;2022-09-12T08:23:58;27.30;;;8.13;;
59907;SDS011;61804;54.926;73.496;2022-09-12T08:26:30;16.13;;;7.00;;
59907;SDS011;61804;54.926;73.496;2022-09-12T08:28:58;15.52;;;3.95;;
59907;SDS011;61804;54.926;73.496;2022-09-12T08:31:29;31.55;;;4.22;;
59907;SDS011;61804;54.926;73.496;2022-09-12T08:34:12;29.48;;;6.90;;
59907;SDS011;61804;54.926;73.496;2022-09-12T08:36:39;28.65;;;7.03;;
59907;SDS011;61804;54.926;73.496;2022-09-12T08:39:07;19.92;;;5.53;;
59907;SDS011;61804;54.926;73.496;2022-09-12T08:41:38;28.55;;;11.23;;
59907;SDS011;61804;54.926;73.496;2022-09-12T08:49:29;20.33;;;3.60;;
59907;SDS011;61804;54.926;73.496;2022-09-12T08:52:23;2.67;;;1.63;;
59907;SDS011;61804;54.926;73.496;2022-09-12T08:54:47;11.48;;;3.42;;
59907;SDS011;61804;54.926;73.496;2022-09-12T08:57:16;5.72;;;1.63;;
59907;SDS011;61804;54.926;73.496;2022-09-12T08:59:44;19.45;;;4.90;;
59907;SDS011;61804;54.926;73.496;2022-09-12T09:04:58;16.75;;;5.47;;
59907;SDS011;61804;54.926;73.496;2022-09-12T09:12:50;29.05;;;7.57;;
59907;SDS011;61804;54.926;73.496;2022-09-12T09:15:44;11.48;;;4.22;;
59907;SDS011;61804;54.926;73.496;2022-09-12T09:18:19;6.03;;;2.95;;
59907;SDS011;61804;54.926;73.496;2022-09-12T09:20:54;7.75;;;3.10;;
59907;SDS011;61804;54.926;73.496;2022-09-12T09:23:24;26.02;;;5.90;;
59907;SDS011;61804;54.926;73.496;2022-09-12T09:28:44;30.67;;;7.28;;
59907;SDS011;61804;54.926;73.496;2022-09-12T09:31:17;37.58;;;6.00;;
59907;SDS011;61804;54.926;73.496;2022-09-12T09:33:49;35.03;;;5.70;;
59907;SDS011;61804;54.926;73.496;2022-09-12T09:39:05;26.02;;;6.03;;
59907;SDS011;61804;54.926;73.496;2022-09-12T09:44:11;10.18;;;4.57;;
59907;SDS011;61804;54.926;73.496;2022-09-12T09:46:51;15.05;;;4.20;;
59907;SDS011;61804;54.926;73.496;2022-09-12T09:49:32;15.73;;;5.47;;
59907;SDS011;61804;54.926;73.496;2022-09-12T09:52:06;78.43;;;16.35;;
59907;SDS011;61804;54.926;73.496;2022-09-12T09:54:45;13.80;;;4.57;;
59907;SDS011;61804;54.926;73.496;2022-09-12T10:02:36;24.27;;;7.70;;
59907;SDS011;61804;54.926;73.496;2022-09-12T10:05:04;28.40;;;5.47;;
59907;SDS011;61804;54.926;73.496;2022-09-12T10:07:48;7.40;;;3.60;;
59907;SDS011;61804;54.926;73.496;2022-09-12T10:10:17;17.90;;;3.90;;
59907;SDS011;61804;54.926;73.496;2022-09-12T10:13:08;8.90;;;3.65;;
59907;SDS011;61804;54.926;73.496;2022-09-12T10:15:37;7.00;;;3.50;;
59907;SDS011;61804;54.926;73.496;2022-09-12T10:18:05;18.60;;;5.55;;
59907;SDS011;61804;54.926;73.496;2022-09-12T10:20:43;31.38;;;7.97;;
59907;SDS011;61804;54.926;73.496;2022-09-12T10:26:09;15.90;;;8.05;;
59907;SDS011;61804;54.926;73.496;2022-09-12T10:28:40;16.25;;;4.65;;
59907;SDS011;61804;54.926;73.496;2022-09-12T10:31:12;25.27;;;5.93;;
59907;SDS011;61804;54.926;73.496;2022-09-12T10:33:42;33.03;;;7.38;;
59907;SDS011;61804;54.926;73.496;2022-09-12T10:36:15;229.80;;;51.47;;
59907;SDS011;61804;54.926;73.496;2022-09-12T10:38:50;40.25;;;7.30;;
59907;SDS011;61804;54.926;73.496;2022-09-12T10:41:19;17.35;;;4.35;;
59907;SDS011;61804;54.926;73.496;2022-09-12T10:43:48;5.63;;;3.00;;
59907;SDS011;61804;54.926;73.496;2022-09-12T10:48:46;80.13;;;16.02;;
59907;SDS011;61804;54.926;73.496;2022-09-12T10:51:35;28.05;;;6.95;;
59907;SDS011;61804;54.926;73.496;2022-09-12T10:54:03;28.00;;;9.38;;
59907;SDS011;61804;54.926;73.496;2022-09-12T10:56:33;14.02;;;3.20;;
59907;SDS011;61804;54.926;73.496;2022-09-12T11:01:54;7.45;;;3.90;;
59907;SDS011;61804;54.926;73.496;2022-09-12T11:09:53;6.40;;;1.83;;
59907;SDS011;61804;54.926;73.496;2022-09-12T11:25:42;8.52;;;1.70;;
59907;SDS011;61804;54.926;73.496;2022-09-12T11:28:27;7.72;;;3.55;;
59907;SDS011;61804;54.926;73.496;2022-09-12T11:31:18;9.77;;;3.15;;
59907;SDS011;61804;54.926;73.496;2022-09-12T11:33:50;6.70;;;1.98;;
59907;SDS011;61804;54.926;73.496;2022-09-12T11:41:33;14.70;;;5.00;;
59907;SDS011;61804;54.926;73.496;2022-09-12T11:46:48;19.65;;;6.20;;
59907;SDS011;61804;54.926;73.496;2022-09-12T11:49:22;1.63;;;1.33;;
59907;SDS011;61804;54.926;73.496;2022-09-12T11:54:41;14.38;;;4.43;;
59907;SDS011;61804;54.926;73.496;2022-09-12T11:57:28;18.35;;;3.45;;
59907;SDS011;61804;54.926;73.496;2022-09-12T12:00:05;18.27;;;4.30;;
59907;SDS011;61804;54.926;73.496;2022-09-12T12:08:18;19.92;;;2.85;;
59907;SDS011;61804;54.926;73.496;2022-09-12T12:18:30;13.48;;;4.82;;
59907;SDS011;61804;54.926;73.496;2022-09-12T12:21:20;10.57;;;4.00;;
59907;SDS011;61804;54.926;73.496;2022-09-12T12:34:45;22.38;;;7.93;;
59907;SDS011;61804;54.926;73.496;2022-09-12T12:40:07;38.30;;;12.02;;
59907;SDS011;61804;54.926;73.496;2022-09-12T12:47:55;21.02;;;7.35;;
59907;SDS011;61804;54.926;73.496;2022-09-12T12:50:25;16.13;;;5.18;;
59907;SDS011;61804;54.926;73.496;2022-09-12T12:53:00;30.00;;;13.25;;
59907;SDS011;61804;54.926;73.496;2022-09-12T12:55:37;81.70;;;41.13;;
59907;SDS011;61804;54.926;73.496;2022-09-12T12:58:28;76.32;;;32.72;;
59907;SDS011;61804;54.926;73.496;2022-09-12T13:01:10;97.07;;;50.97;;
59907;SDS011;61804;54.926;73.496;2022-09-12T13:03:41;82.50;;;49.50;;
59907;SDS011;61804;54.926;73.496;2022-09-12T13:06:26;100.88;;;60.45;;
59907;SDS011;61804;54.926;73.496;2022-09-12T13:08:59;110.50;;;60.78;;
59907;SDS011;61804;54.926;73.496;2022-09-12T13:11:31;67.30;;;44.63;;
59907;SDS011;61804;54.926;73.496;2022-09-12T13:14:02;67.15;;;33.88;;
59907;SDS011;61804;54.926;73.496;2022-09-12T13:16:35;48.58;;;27.42;;
59907;SDS011;61804;54.926;73.496;2022-09-12T13:19:14;51.67;;;28.52;;
59907;SDS011;61804;54.926;73.496;2022-09-12T13:22:05;70.32;;;28.30;;
59907;SDS011;61804;54.926;73.496;2022-09-12T13:24:43;76.72;;;25.55;;
59907;SDS011;61804;54.926;73.496;2022-09-12T13:27:16;92.68;;;33.75;;
59907;SDS011;61804;54.926;73.496;2022-09-12T13:29:45;104.47;;;50.25;;
59907;SDS011;61804;54.926;73.496;2022-09-12T13:32:23;112.25;;;60.33;;
59907;SDS011;61804;54.926;73.496;2022-09-12T13:43:12;87.95;;;39.22;;
59907;SDS011;61804;54.926;73.496;2022-09-12T13:45:44;86.45;;;42.50;;
59907;SDS011;61804;54.926;73.496;2022-09-12T13:48:24;126.22;;;53.60;;
59907;SDS011;61804;54.926;73.496;2022-09-12T13:50:58;105.75;;;49.70;;
59907;SDS011;61804;54.926;73.496;2022-09-12T13:53:45;112.13;;;47.05;;
59907;SDS011;61804;54.926;73.496;2022-09-12T13:56:19;144.88;;;57.90;;
59907;SDS011;61804;54.926;73.496;2022-09-12T13:58:58;142.88;;;56.70;;
59907;SDS011;61804;54.926;73.496;2022-09-12T14:01:42;119.15;;;54.20;;
59907;SDS011;61804;54.926;73.496;2022-09-12T14:04:14;109.30;;;54.88;;
59907;SDS011;61804;54.926;73.496;2022-09-12T14:07:02;122.57;;;64.97;;
59907;SDS011;61804;54.926;73.496;2022-09-12T14:09:38;110.00;;;61.20;;
59907;SDS011;61804;54.926;73.496;2022-09-12T14:15:03;105.78;;;56.63;;
59907;SDS011;61804;54.926;73.496;2022-09-12T14:17:33;125.78;;;62.05;;
59907;SDS011;61804;54.926;73.496;2022-09-12T14:20:10;174.05;;;93.80;;
59907;SDS011;61804;54.926;73.496;2022-09-12T14:22:38;135.10;;;86.95;;
59907;SDS011;61804;54.926;73.496;2022-09-12T14:25:15;142.68;;;91.43;;
59907;SDS011;61804;54.926;73.496;2022-09-12T14:27:52;146.68;;;96.15;;
59907;SDS011;61804;54.926;73.496;2022-09-12T14:30:22;105.95;;;77.50;;
59907;SDS011;61804;54.926;73.496;2022-09-12T14:35:37;126.30;;;83.05;;
59907;SDS011;61804;54.926;73.496;2022-09-12T14:40:45;194.80;;;152.50;;
59907;SDS011;61804;54.926;73.496;2022-09-12T14:43:23;301.10;;;211.95;;
59907;SDS011;61804;54.926;73.496;2022-09-12T14:46:05;300.90;;;212.32;;
59907;SDS011;61804;54.926;73.496;2022-09-12T14:48:41;339.30;;;240.80;;
59907;SDS011;61804;54.926;73.496;2022-09-12T14:51:20;327.08;;;231.38;;
59907;SDS011;61804;54.926;73.496;2022-09-12T14:53:53;357.70;;;248.25;;
59907;SDS011;61804;54.926;73.496;2022-09-12T14:56:21;276.95;;;203.48;;
59907;SDS011;61804;54.926;73.496;2022-09-12T14:59:19;264.33;;;183.10;;
59907;SDS011;61804;54.926;73.496;2022-09-12T15:01:47;263.33;;;169.52;;
59907;SDS011;61804;54.926;73.496;2022-09-12T15:09:56;233.18;;;149.18;;
59907;SDS011;61804;54.926;73.496;2022-09-12T15:12:25;226.35;;;150.02;;
59907;SDS011;61804;54.926;73.496;2022-09-12T15:14:56;197.65;;;131.20;;
59907;SDS011;61804;54.926;73.496;2022-09-12T15:17:26;157.00;;;109.65;;
59907;SDS011;61804;54.926;73.496;2022-09-12T15:20:04;181.40;;;128.68;;
59907;SDS011;61804;54.926;73.496;2022-09-12T15:22:38;141.57;;;95.82;;
59907;SDS011;61804;54.926;73.496;2022-09-12T15:25:06;34.20;;;22.88;;
59907;SDS011;61804;54.926;73.496;2022-09-12T15:27:35;34.33;;;23.63;;
59907;SDS011;61804;54.926;73.496;2022-09-12T15:30:07;36.80;;;16.55;;
59907;SDS011;61804;54.926;73.496;2022-09-12T15:32:46;81.13;;;50.28;;
59907;SDS011;61804;54.926;73.496;2022-09-12T15:35:19;95.18;;;53.78;;
59907;SDS011;61804;54.926;73.496;2022-09-12T15:37:59;120.53;;;68.55;;
59907;SDS011;61804;54.926;73.496;2022-09-12T15:40:28;110.85;;;67.93;;
59907;SDS011;61804;54.926;73.496;2022-09-12T15:42:55;31.88;;;21.15;;
59907;SDS011;61804;54.926;73.496;2022-09-12T15:45:30;26.42;;;19.95;;
59907;SDS011;61804;54.926;73.496;2022-09-12T15:47:58;29.83;;;20.50;;
59907;SDS011;61804;54.926;73.496;2022-09-12T15:50:36;27.52;;;16.63;;
59907;SDS011;61804;54.926;73.496;2022-09-12T15:53:04;15.13;;;10.57;;
59907;SDS011;61804;54.926;73.496;2022-09-12T15:55:33;22.88;;;13.15;;
59907;SDS011;61804;54.926;73.496;2022-09-12T15:58:01;14.32;;;10.07;;
59907;SDS011;61804;54.926;73.496;2022-09-12T16:00:29;17.52;;;13.02;;
59907;SDS011;61804;54.926;73.496;2022-09-12T16:02:57;29.75;;;13.52;;
59907;SDS011;61804;54.926;73.496;2022-09-12T16:05:25;16.65;;;10.32;;
59907;SDS011;61804;54.926;73.496;2022-09-12T16:07:53;17.42;;;10.95;;
59907;SDS011;61804;54.926;73.496;2022-09-12T16:10:24;23.58;;;14.98;;
59907;SDS011;61804;54.926;73.496;2022-09-12T16:12:52;48.67;;;30.45;;
59907;SDS011;61804;54.926;73.496;2022-09-12T16:15:21;53.50;;;36.97;;
59907;SDS011;61804;54.926;73.496;2022-09-12T16:17:56;43.20;;;31.10;;
59907;SDS011;61804;54.926;73.496;2022-09-12T16:20:30;40.85;;;29.95;;
59907;SDS011;61804;54.926;73.496;2022-09-12T16:23:11;43.40;;;30.27;;
59907;SDS011;61804;54.926;73.496;2022-09-12T16:25:42;33.00;;;27.13;;
59907;SDS011;61804;54.926;73.496;2022-09-12T16:28:10;19.33;;;9.88;;
59907;SDS011;61804;54.926;73.496;2022-09-12T16:30:39;32.58;;;15.88;;
59907;SDS011;61804;54.926;73.496;2022-09-12T16:33:11;47.03;;;25.73;;
59907;SDS011;61804;54.926;73.496;2022-09-12T16:35:43;36.85;;;27.42;;
59907;SDS011;61804;54.926;73.496;2022-09-12T16:38:11;40.05;;;31.80;;
59907;SDS011;61804;54.926;73.496;2022-09-12T16:40:39;41.67;;;31.80;;
59907;SDS011;61804;54.926;73.496;2022-09-12T16:43:07;26.20;;;21.75;;
59907;SDS011;61804;54.926;73.496;2022-09-12T16:45:36;46.63;;;25.42;;
59907;SDS011;61804;54.926;73.496;2022-09-12T16:48:04;25.20;;;14.63;;
59907;SDS011;61804;54.926;73.496;2022-09-12T16:50:33;21.08;;;15.18;;
59907;SDS011;61804;54.926;73.496;2022-09-12T16:53:01;16.00;;;13.60;;
59907;SDS011;61804;54.926;73.496;2022-09-12T16:55:34;29.95;;;14.50;;
59907;SDS011;61804;54.926;73.496;2022-09-12T16:58:03;21.42;;;15.35;;
59907;SDS011;61804;54.926;73.496;2022-09-12T17:00:34;23.75;;;12.50;;
59907;SDS011;61804;54.926;73.496;2022-09-12T17:03:02;19.85;;;10.70;;
59907;SDS011;61804;54.926;73.496;2022-09-12T17:05:30;17.45;;;11.07;;
59907;SDS011;61804;54.926;73.496;2022-09-12T17:07:59;13.25;;;8.93;;
59907;SDS011;61804;54.926;73.496;2022-09-12T17:10:27;16.20;;;11.10;;
59907;SDS011;61804;54.926;73.496;2022-09-12T17:12:56;17.08;;;10.80;;
59907;SDS011;61804;54.926;73.496;2022-09-12T17:15:24;18.92;;;10.38;;
59907;SDS011;61804;54.926;73.496;2022-09-12T17:17:56;12.55;;;10.48;;
59907;SDS011;61804;54.926;73.496;2022-09-12T17:20:24;18.52;;;10.85;;
59907;SDS011;61804;54.926;73.496;2022-09-12T17:22:57;16.17;;;9.43;;
59907;SDS011;61804;54.926;73.496;2022-09-12T17:25:25;12.15;;;8.95;;
59907;SDS011;61804;54.926;73.496;2022-09-12T17:27:53;14.45;;;11.82;;
59907;SDS011;61804;54.926;73.496;2022-09-12T17:30:26;17.17;;;8.60;;
59907;SDS011;61804;54.926;73.496;2022-09-12T17:32:53;12.95;;;9.27;;
59907;SDS011;61804;54.926;73.496;2022-09-12T17:35:35;12.40;;;8.70;;
59907;SDS011;61804;54.926;73.496;2022-09-12T17:38:03;13.65;;;6.93;;